Time;durP1;ratioP1;P1;durP2;ratioP2;P2;SDS_P1;SDS_P2;PMS_P1;PMS_P2;Temp;Humidity;BMP_temperature;BMP_pressure;BME280_temperature;BME280_humidity;BME280_pressure;Samples;Min_cycle;Max_cycle;Signal;HPM_P1;HPM_P2
2023/11/29 00:00:24;;;;;;;53.20;30.10;;;;;;;-2.52;100.00;97683.77;109483;1253;65881;-75
2023/11/29 00:03:10;;;;;;;47.70;28.30;;;;;;;-2.54;100.00;97683.83;109496;1254;62639;-77
2023/11/29 00:05:38;;;;;;;52.50;29.60;;;;;;;-2.56;100.00;97685.30;109482;1253;64814;-75
2023/11/29 00:08:05;;;;;;;55.20;31.30;;;;;;;-2.58;100.00;97685.38;109449;1254;58149;-75
2023/11/29 00:10:31;;;;;;;53.30;29.70;;;;;;;-2.60;100.00;97693.27;109509;1253;58558;-75
2023/11/29 00:12:58;;;;;;;48.40;27.00;;;;;;;-2.61;100.00;97701.83;109195;1253;65868;-75
2023/11/29 00:15:24;;;;;;;54.40;30.90;;;;;;;-2.62;100.00;97707.78;109562;1254;59689;-75
2023/11/29 00:17:51;;;;;;;58.90;32.80;;;;;;;-2.62;100.00;97714.57;109155;1254;64756;-76
2023/11/29 00:20:17;;;;;;;58.40;33.30;;;;;;;-2.62;100.00;97718.02;109587;1253;58261;-75
2023/11/29 00:22:44;;;;;;;66.80;35.00;;;;;;;-2.62;100.00;97717.69;109284;1253;58144;-76
2023/11/29 00:25:11;;;;;;;68.10;35.40;;;;;;;-2.63;100.00;97717.54;109509;1251;66181;-75
2023/11/29 00:27:37;;;;;;;70.60;36.30;;;;;;;-2.64;100.00;97724.00;109256;1254;60796;-76
2023/11/29 00:30:04;;;;;;;80.10;41.00;;;;;;;-2.65;100.00;97731.51;109206;1254;62435;-76
2023/11/29 00:32:31;;;;;;;68.80;35.50;;;;;;;-2.65;100.00;97734.46;109554;1252;58201;-76
2023/11/29 00:34:57;;;;;;;64.00;34.10;;;;;;;-2.63;100.00;97743.13;109518;1253;58508;-75
2023/11/29 00:37:24;;;;;;;65.50;35.90;;;;;;;-2.62;100.00;97745.34;109533;1254;65950;-81
2023/11/29 00:39:50;;;;;;;59.40;32.30;;;;;;;-2.61;100.00;97749.64;109455;1253;60834;-77
2023/11/29 00:42:17;;;;;;;59.20;31.90;;;;;;;-2.60;100.00;97754.30;109225;1253;63646;-75
2023/11/29 00:44:44;;;;;;;77.10;37.10;;;;;;;-2.60;100.00;97756.91;109513;1252;58540;-75
2023/11/29 00:47:10;;;;;;;69.50;34.30;;;;;;;-2.59;100.00;97762.27;109551;1253;58329;-76
2023/11/29 00:49:37;;;;;;;65.90;35.70;;;;;;;-2.60;100.00;97765.23;109577;1253;66030;-75
2023/11/29 00:52:04;;;;;;;71.10;36.10;;;;;;;-2.61;100.00;97766.66;109522;1253;59704;-76
2023/11/29 00:54:31;;;;;;;60.60;34.40;;;;;;;-2.61;100.00;97766.69;108799;1253;1002379;-77
2023/11/29 00:56:57;;;;;;;59.70;30.80;;;;;;;-2.63;100.00;97768.66;108736;1252;1002377;-76
2023/11/29 00:59:24;;;;;;;58.70;32.10;;;;;;;-2.64;100.00;97768.70;108768;1253;1003008;-75
2023/11/29 01:01:50;;;;;;;58.00;33.20;;;;;;;-2.65;100.00;97777.25;108728;1256;1002291;-76
2023/11/29 01:04:17;;;;;;;60.60;34.60;;;;;;;-2.67;100.00;97780.61;108805;1254;1003095;-76
2023/11/29 01:06:43;;;;;;;63.70;35.90;;;;;;;-2.68;100.00;97780.13;109486;1254;58230;-76
2023/11/29 01:09:10;;;;;;;66.10;36.10;;;;;;;-2.69;100.00;97787.44;109521;1253;58595;-77
2023/11/29 01:11:36;;;;;;;56.30;32.80;;;;;;;-2.69;100.00;97786.77;109574;1251;58185;-77
2023/11/29 01:14:03;;;;;;;71.10;37.40;;;;;;;-2.70;100.00;97786.81;109542;1252;65139;-77
2023/11/29 01:16:29;;;;;;;59.60;33.40;;;;;;;-2.71;100.00;97785.45;109538;1254;60028;-77
2023/11/29 01:18:57;;;;;;;60.60;33.40;;;;;;;-2.72;100.00;97785.98;109522;1253;64723;-73
2023/11/29 01:21:24;;;;;;;61.50;36.30;;;;;;;-2.73;100.00;97788.96;109565;1252;58351;-76
2023/11/29 01:23:50;;;;;;;59.60;33.70;;;;;;;-2.73;100.00;97788.82;109469;1253;58164;-76
2023/11/29 01:26:17;;;;;;;60.30;35.10;;;;;;;-2.73;100.00;97790.73;109543;1252;66151;-75
2023/11/29 01:28:43;;;;;;;60.40;33.90;;;;;;;-2.74;100.00;97786.91;109554;1253;59181;-76
2023/11/29 01:31:12;;;;;;;57.90;32.60;;;;;;;-2.75;100.00;97787.33;109518;1252;64874;-77
2023/11/29 01:33:40;;;;;;;57.40;31.70;;;;;;;-2.76;100.00;97793.09;109530;1253;58222;-76
2023/11/29 01:36:11;;;;;;;54.60;31.10;;;;;;;-2.77;100.00;97794.14;109538;1253;58178;-76
2023/11/29 01:38:38;;;;;;;51.60;28.80;;;;;;;-2.78;100.00;97795.05;109547;1253;64987;-76
2023/11/29 01:41:04;;;;;;;57.40;32.00;;;;;;;-2.80;100.00;97794.08;109242;1254;60730;-76
2023/11/29 01:43:31;;;;;;;57.20;32.20;;;;;;;-2.82;100.00;97796.06;109523;1254;65042;-76
2023/11/29 01:45:58;;;;;;;52.20;29.50;;;;;;;-2.84;100.00;97797.00;109231;1253;58225;-76
2023/11/29 01:48:25;;;;;;;55.40;31.90;;;;;;;-2.87;100.00;97792.73;109494;1255;58205;-77
2023/11/29 01:50:52;;;;;;;57.90;31.40;;;;;;;-2.90;100.00;97797.02;109492;1251;65078;-74
2023/11/29 01:53:22;;;;;;;51.60;29.80;;;;;;;-2.94;100.00;97794.70;109243;1253;59821;-77
2023/11/29 01:55:50;;;;;;;56.70;32.30;;;;;;;-2.97;100.00;97798.27;109515;1254;63709;-77
2023/11/29 01:58:17;;;;;;;57.10;31.30;;;;;;;-2.99;100.00;97800.10;109498;1254;58110;-75
2023/11/29 02:00:44;;;;;;;57.80;32.30;;;;;;;-3.03;100.00;97799.86;109525;1255;58472;-76
2023/11/29 02:03:11;;;;;;;56.70;31.10;;;;;;;-3.07;100.00;97797.55;109511;1255;65958;-76
2023/11/29 02:05:38;;;;;;;55.20;30.40;;;;;;;-3.11;100.00;97796.62;109565;1255;60981;-75
2023/11/29 02:08:05;;;;;;;60.10;33.20;;;;;;;-3.15;100.00;97793.77;109451;1254;65045;-76
2023/11/29 02:10:33;;;;;;;58.20;30.00;;;;;;;-3.18;100.00;97797.38;109537;1254;58234;-76
2023/11/29 02:13:00;;;;;;;60.70;32.50;;;;;;;-3.23;100.00;97797.87;109479;1253;58137;-75
2023/11/29 02:15:27;;;;;;;56.60;30.40;;;;;;;-3.27;100.00;97796.98;109542;1253;65417;-76
2023/11/29 02:17:53;;;;;;;56.20;29.10;;;;;;;-3.32;100.00;97797.98;109583;1252;59219;-76
2023/11/29 02:20:21;;;;;;;57.70;32.20;;;;;;;-3.36;100.00;97802.42;109523;1254;64731;-76
2023/11/29 02:22:54;;;;;;;64.60;34.00;;;;;;;-3.41;100.00;97804.67;109445;1258;58258;-76
2023/11/29 02:25:21;;;;;;;61.80;32.90;;;;;;;-3.43;100.00;97811.84;109585;1252;58178;-76
2023/11/29 02:27:47;;;;;;;58.20;31.20;;;;;;;-3.44;100.00;97812.59;109495;1252;65886;-76
2023/11/29 02:30:14;;;;;;;56.40;31.20;;;;;;;-3.45;100.00;97811.57;109536;1254;61054;-76
2023/11/29 02:32:40;;;;;;;59.80;32.60;;;;;;;-3.46;100.00;97807.98;108727;1253;1002835;-76
2023/11/29 02:35:07;;;;;;;63.90;33.50;;;;;;;-3.49;100.00;97808.40;109508;1252;58165;-75
2023/11/29 02:37:34;;;;;;;64.50;34.90;;;;;;;-3.52;100.00;97813.34;109168;1254;58412;-75
2023/11/29 02:40:03;;;;;;;62.00;33.70;;;;;;;-3.56;100.00;97815.35;109562;1254;65852;-74
2023/11/29 02:42:30;;;;;;;59.40;33.50;;;;;;;-3.59;100.00;97818.92;109493;1253;59728;-75
2023/11/29 02:44:56;;;;;;;60.00;33.60;;;;;;;-3.61;100.00;97822.64;109472;1254;64711;-76
2023/11/29 02:47:23;;;;;;;60.60;32.80;;;;;;;-3.64;100.00;97825.48;109504;1252;58200;-76
2023/11/29 02:49:49;;;;;;;58.90;32.10;;;;;;;-3.67;100.00;97829.23;109515;1253;58227;-77
2023/11/29 02:52:16;;;;;;;66.30;35.50;;;;;;;-3.69;100.00;97828.59;109524;1253;66055;-76
2023/11/29 02:54:42;;;;;;;58.90;32.10;;;;;;;-3.73;100.00;97825.73;109498;1254;60702;-76
2023/11/29 02:57:09;;;;;;;64.40;34.90;;;;;;;-3.77;100.00;97829.69;109525;1252;64730;-76
2023/11/29 02:59:35;;;;;;;62.80;34.80;;;;;;;-3.80;100.00;97831.86;109510;1252;58219;-76
2023/11/29 03:02:02;;;;;;;51.60;30.80;;;;;;;-3.85;100.00;97834.23;109512;1252;58389;-77
2023/11/29 03:04:28;;;;;;;60.20;32.90;;;;;;;-3.88;100.00;97841.46;109518;1254;64845;-76
2023/11/29 03:06:55;;;;;;;61.70;33.30;;;;;;;-3.93;100.00;97846.08;109544;1252;60743;-76
2023/11/29 03:09:21;;;;;;;61.10;33.10;;;;;;;-3.96;100.00;97846.87;109458;1254;65235;-76
2023/11/29 03:11:48;;;;;;;61.30;33.40;;;;;;;-3.98;100.00;97849.02;109256;1252;58209;-75
2023/11/29 03:14:14;;;;;;;53.90;29.40;;;;;;;-4.02;100.00;97854.30;109484;1256;58134;-76
2023/11/29 03:16:41;;;;;;;56.70;32.80;;;;;;;-4.04;100.00;97858.86;109242;1251;63691;-74
2023/11/29 03:19:08;;;;;;;59.00;33.30;;;;;;;-4.05;100.00;97860.48;109561;1252;59734;-76
2023/11/29 03:21:34;;;;;;;56.90;32.40;;;;;;;-4.07;100.00;97861.38;109537;1254;64814;-75
2023/11/29 03:24:01;;;;;;;61.00;32.20;;;;;;;-4.08;100.00;97860.39;108720;1252;1002252;-76
2023/11/29 03:26:27;;;;;;;65.00;36.20;;;;;;;-4.09;100.00;97862.65;108792;1254;1002174;-75
2023/11/29 03:28:54;;;;;;;64.50;36.50;;;;;;;-4.10;100.00;97863.72;108783;1254;1002669;-74
2023/11/29 03:31:20;;;;;;;67.70;34.70;;;;;;;-4.11;100.00;97866.00;109551;1252;60948;-75
2023/11/29 03:33:47;;;;;;;61.20;34.20;;;;;;;-4.15;100.00;97865.59;109524;1253;64967;-76
2023/11/29 03:36:13;;;;;;;55.50;31.50;;;;;;;-4.20;100.00;97870.38;109470;1253;58490;-76
2023/11/29 03:38:40;;;;;;;64.40;35.40;;;;;;;-4.26;100.00;97874.55;108759;1253;1002067;-73
2023/11/29 03:41:07;;;;;;;64.20;33.10;;;;;;;-4.33;100.00;97881.81;109494;1253;65847;-76
2023/11/29 03:43:34;;;;;;;64.00;34.00;;;;;;;-4.37;100.00;97888.51;109396;1252;59877;-76
2023/11/29 03:46:01;;;;;;;62.40;35.50;;;;;;;-4.37;100.00;97891.46;109544;1253;64708;-75
2023/11/29 03:48:27;;;;;;;67.00;36.10;;;;;;;-4.33;100.00;97891.70;109235;1253;58182;-75
2023/11/29 03:50:54;;;;;;;67.30;37.80;;;;;;;-4.28;100.00;97894.20;109368;1253;58675;-75
2023/11/29 03:53:20;;;;;;;61.10;33.90;;;;;;;-4.25;100.00;97894.27;109476;1253;66277;-75
2023/11/29 03:55:47;;;;;;;57.60;31.70;;;;;;;-4.20;100.00;97900.92;109375;1251;174393;-74
2023/11/29 03:58:14;;;;;;;63.80;35.10;;;;;;;-4.16;100.00;97902.04;109480;1252;65050;-74
2023/11/29 04:00:40;;;;;;;56.50;31.20;;;;;;;-4.12;100.00;97905.73;109545;1253;58367;-73
2023/11/29 04:03:08;;;;;;;55.90;30.60;;;;;;;-4.09;100.00;97908.97;108799;1252;1003204;-74
2023/11/29 04:05:34;;;;;;;55.20;31.90;;;;;;;-4.07;100.00;97911.51;109513;1254;66188;-75
2023/11/29 04:08:02;;;;;;;65.20;33.80;;;;;;;-4.04;100.00;97910.39;109550;1251;59757;-74
2023/11/29 04:10:29;;;;;;;55.70;31.60;;;;;;;-4.01;100.00;97914.66;109190;1256;63725;-75
2023/11/29 04:12:55;;;;;;;65.60;33.70;;;;;;;-4.01;100.00;97919.50;109160;1257;58238;-75
2023/11/29 04:15:22;;;;;;;59.30;31.10;;;;;;;-4.01;100.00;97921.09;108973;1256;58347;-75
2023/11/29 04:17:48;;;;;;;64.00;32.90;;;;;;;-4.01;100.00;97924.02;109165;1257;65057;-76
2023/11/29 04:20:15;;;;;;;59.80;32.10;;;;;;;-3.99;100.00;97926.55;109226;1256;59724;-75
2023/11/29 04:22:43;;;;;;;60.30;32.80;;;;;;;-3.97;100.00;97923.75;109181;1256;63620;-75
2023/11/29 04:25:09;;;;;;;57.20;31.40;;;;;;;-3.94;100.00;97926.80;109164;1256;58204;-75
2023/11/29 04:27:37;;;;;;;60.30;32.50;;;;;;;-3.92;100.00;97930.73;109161;1257;58674;-76
2023/11/29 04:30:05;;;;;;;54.80;29.50;;;;;;;-3.91;100.00;97936.26;109182;1257;66350;-76
2023/11/29 04:32:31;;;;;;;61.20;33.00;;;;;;;-3.92;100.00;97939.73;109194;1257;60086;-74
2023/11/29 04:34:58;;;;;;;63.30;34.00;;;;;;;-3.91;100.00;97941.29;109007;1257;64858;-74
2023/11/29 04:37:25;;;;;;;64.10;32.70;;;;;;;-3.92;100.00;97943.92;108429;1256;1002600;-75
2023/11/29 04:39:51;;;;;;;59.40;31.50;;;;;;;-3.91;100.00;97944.77;109184;1256;58316;-75
2023/11/29 04:42:19;;;;;;;54.10;27.50;;;;;;;-3.91;100.00;97944.94;109383;1254;58303;-76
2023/11/29 04:44:47;;;;;;;45.80;25.80;;;;;;;-3.92;100.00;97943.58;109493;1254;60936;-75
2023/11/29 04:47:15;;;;;;;60.30;31.40;;;;;;;-3.93;100.00;97945.31;109490;1254;64973;-77
2023/11/29 04:49:41;;;;;;;53.80;27.50;;;;;;;-3.94;100.00;97949.00;109486;1253;58215;-76
2023/11/29 04:52:08;;;;;;;55.20;30.40;;;;;;;-3.95;100.00;97950.24;109526;1253;58206;-76
2023/11/29 04:54:34;;;;;;;50.90;26.10;;;;;;;-3.97;100.00;97949.77;109481;1253;65893;-76
2023/11/29 04:57:01;;;;;;;55.20;29.80;;;;;;;-3.99;100.00;97952.40;109526;1252;61041;-75
2023/11/29 04:59:27;;;;;;;51.50;27.50;;;;;;;-4.01;100.00;97950.20;109486;1253;65042;-77
2023/11/29 05:01:54;;;;;;;50.30;27.90;;;;;;;-4.02;100.00;97950.06;109548;1252;58209;-74
2023/11/29 05:04:20;;;;;;;52.70;29.10;;;;;;;-4.02;100.00;97952.50;109526;1253;58178;-77
2023/11/29 05:06:47;;;;;;;48.50;26.80;;;;;;;-4.03;100.00;97955.98;109506;1252;66183;-75
2023/11/29 05:09:14;;;;;;;47.30;25.40;;;;;;;-4.05;100.00;97960.54;109431;1253;58512;-76
2023/11/29 05:11:41;;;;;;;48.40;25.70;;;;;;;-4.08;100.00;97964.44;109530;1253;64723;-76
2023/11/29 05:14:08;;;;;;;47.30;23.80;;;;;;;-4.08;100.00;97970.51;109506;1253;58223;-76
2023/11/29 05:16:34;;;;;;;46.00;25.10;;;;;;;-4.07;100.00;97976.41;109507;1253;58172;-76
2023/11/29 05:19:01;;;;;;;44.20;23.30;;;;;;;-4.06;100.00;97979.14;109533;1251;64830;-76
2023/11/29 05:21:27;;;;;;;49.30;26.40;;;;;;;-4.05;100.00;97972.87;109529;1252;60078;-77
2023/11/29 05:23:54;;;;;;;38.50;21.40;;;;;;;-4.03;100.00;97971.77;109535;1252;64707;-77
2023/11/29 05:26:21;;;;;;;44.70;24.70;;;;;;;-4.02;100.00;97972.27;109495;1253;58475;-76
2023/11/29 05:28:47;;;;;;;46.60;23.20;;;;;;;-4.01;100.00;97972.93;109248;1254;58239;-75
2023/11/29 05:31:14;;;;;;;46.40;26.30;;;;;;;-3.99;100.00;97976.72;109546;1253;65853;-73
2023/11/29 05:33:41;;;;;;;47.90;24.10;;;;;;;-3.99;100.00;97982.24;109311;1251;60692;-74
2023/11/29 05:36:08;;;;;;;44.30;23.70;;;;;;;-3.98;100.00;97991.08;109508;1252;65114;-76
2023/11/29 05:38:35;;;;;;;47.10;24.90;;;;;;;-3.96;100.00;97990.70;109295;1252;58245;-74
2023/11/29 05:41:02;;;;;;;49.60;25.20;;;;;;;-3.95;100.00;97987.37;109485;1252;58480;-76
2023/11/29 05:43:28;;;;;;;42.40;23.90;;;;;;;-3.95;100.00;97988.57;109507;1253;65030;-76
2023/11/29 05:45:55;;;;;;;44.80;23.30;;;;;;;-3.96;100.00;97990.16;108724;1253;1002375;-77
2023/11/29 05:48:21;;;;;;;44.40;23.30;;;;;;;-3.98;100.00;97993.50;108730;1253;1002362;-77
2023/11/29 05:50:48;;;;;;;45.60;24.80;;;;;;;-3.99;100.00;97994.40;108695;1253;1002473;-76
2023/11/29 05:53:17;;;;;;;38.60;21.90;;;;;;;-4.00;100.00;97998.59;108742;1253;1002267;-76
2023/11/29 05:55:44;;;;;;;41.00;23.10;;;;;;;-4.01;100.00;98002.09;109504;1252;65868;-76
2023/11/29 05:58:11;;;;;;;38.60;20.20;;;;;;;-4.02;100.00;98006.63;109533;1253;59529;-77
2023/11/29 06:00:37;;;;;;;44.40;23.20;;;;;;;-4.02;100.00;98006.98;109562;1252;65316;-77
2023/11/29 06:03:04;;;;;;;42.10;22.30;;;;;;;-4.04;100.00;98003.36;109476;1252;58316;-78
2023/11/29 06:05:31;;;;;;;44.60;23.30;;;;;;;-4.06;100.00;98003.43;109470;1253;58217;-76
2023/11/29 06:07:57;;;;;;;41.00;21.40;;;;;;;-4.06;100.00;98011.41;109492;1252;65046;-76
2023/11/29 06:10:24;;;;;;;39.90;21.30;;;;;;;-4.07;100.00;98015.78;109578;1253;61011;-76
2023/11/29 06:12:51;;;;;;;41.70;23.40;;;;;;;-4.09;100.00;98018.23;109235;1252;64685;-77
2023/11/29 06:15:18;;;;;;;40.80;20.80;;;;;;;-4.10;100.00;98023.98;109487;1253;58235;-76
2023/11/29 06:17:45;;;;;;;47.20;25.10;;;;;;;-4.10;100.00;98031.80;109507;1254;58221;-77
2023/11/29 06:20:11;;;;;;;44.20;23.20;;;;;;;-4.09;100.00;98038.36;109524;1253;66409;-77
2023/11/29 06:22:38;;;;;;;37.60;20.70;;;;;;;-4.08;100.00;98035.75;109543;1252;61071;-75
2023/11/29 06:25:07;;;;;;;36.60;21.40;;;;;;;-4.09;100.00;98037.14;109471;1253;64174;-75
2023/11/29 06:27:35;;;;;;;34.80;19.20;;;;;;;-4.11;100.00;98039.42;109470;1252;58197;-76
2023/11/29 06:30:03;;;;;;;30.60;18.90;;;;;;;-4.12;100.00;98038.08;109465;1252;58215;-76
2023/11/29 06:32:31;;;;;;;35.40;18.90;;;;;;;-4.13;100.00;98039.85;109514;1253;66192;-75
2023/11/29 06:34:57;;;;;;;37.30;20.70;;;;;;;-4.13;100.00;98045.73;109503;1253;60253;-76
2023/11/29 06:37:24;;;;;;;33.10;18.30;;;;;;;-4.10;100.00;98047.05;109470;1252;63682;-76
2023/11/29 06:39:51;;;;;;;32.60;18.60;;;;;;;-4.08;100.00;98045.80;109199;1253;58299;-76
2023/11/29 06:42:17;;;;;;;39.00;21.10;;;;;;;-4.06;100.00;98049.92;109535;1252;58365;-76
2023/11/29 06:44:44;;;;;;;40.20;21.10;;;;;;;-4.03;100.00;98048.79;109507;1253;64904;-75
2023/11/29 06:47:10;;;;;;;39.30;19.60;;;;;;;-4.01;100.00;98051.00;109474;1252;61052;-76
2023/11/29 06:49:38;;;;;;;35.30;21.70;;;;;;;-3.96;100.00;98055.05;109521;1253;65063;-74
2023/11/29 06:52:06;;;;;;;35.30;20.20;;;;;;;-3.91;100.00;98056.16;109458;1251;58316;-75
2023/11/29 06:54:33;;;;;;;34.00;19.90;;;;;;;-3.88;100.00;98057.47;109270;1253;58499;-76
2023/11/29 06:57:00;;;;;;;36.00;20.90;;;;;;;-3.84;100.00;98059.98;109481;1252;66167;-76
2023/11/29 06:59:26;;;;;;;38.90;21.40;;;;;;;-3.81;100.00;98057.46;109521;1253;61053;-77
2023/11/29 07:01:53;;;;;;;39.90;23.10;;;;;;;-3.76;100.00;98058.21;109497;1253;65379;-74
2023/11/29 07:04:19;;;;;;;38.10;21.00;;;;;;;-3.74;100.00;98062.49;109509;1252;58126;-76
2023/11/29 07:06:46;;;;;;;40.40;22.50;;;;;;;-3.72;100.00;98063.66;109458;1252;58095;-76
2023/11/29 07:09:16;;;;;;;35.80;20.90;;;;;;;-3.67;100.00;98067.20;109481;1252;66221;-76
2023/11/29 07:11:44;;;;;;;43.50;23.30;;;;;;;-3.65;100.00;98071.82;109523;1252;61147;-77
2023/11/29 07:14:10;;;;;;;46.50;24.70;;;;;;;-3.65;100.00;98073.55;108749;1253;1002729;-75
2023/11/29 07:16:37;;;;;;;52.20;27.00;;;;;;;-3.66;100.00;98080.36;108718;1253;1002296;-77
2023/11/29 07:19:03;;;;;;;44.30;24.50;;;;;;;-3.66;100.00;98085.74;109436;1252;58223;-77
2023/11/29 07:21:30;;;;;;;47.20;25.20;;;;;;;-3.65;100.00;98083.82;109448;1251;58317;-77
2023/11/29 07:23:57;;;;;;;51.90;26.50;;;;;;;-3.64;100.00;98083.78;109523;1251;58522;-78
2023/11/29 07:26:23;;;;;;;51.80;25.70;;;;;;;-3.62;100.00;98086.69;109510;1251;58237;-75
2023/11/29 07:28:50;;;;;;;47.10;24.50;;;;;;;-3.59;100.00;98094.23;109513;1253;58231;-76
2023/11/29 07:31:16;;;;;;;45.00;24.20;;;;;;;-3.60;100.00;98097.20;109488;1251;58250;-76
2023/11/29 07:33:43;;;;;;;50.40;26.50;;;;;;;-3.60;100.00;98100.17;109512;1253;65146;-74
2023/11/29 07:36:13;;;;;;;45.30;25.00;;;;;;;-3.59;100.00;98101.37;109519;1253;61316;-74
2023/11/29 07:38:40;;;;;;;49.20;24.60;;;;;;;-3.56;100.00;98101.64;109499;1252;62802;-77
2023/11/29 07:41:09;;;;;;;44.90;24.40;;;;;;;-3.51;100.00;98101.69;109537;1253;58186;-74
2023/11/29 07:43:35;;;;;;;47.30;24.20;;;;;;;-3.45;100.00;98096.67;109547;1251;58386;-76
2023/11/29 07:46:03;;;;;;;38.00;22.50;;;;;;;-3.38;100.00;98100.31;109519;1252;66346;-76
2023/11/29 07:48:30;;;;;;;41.00;22.80;;;;;;;-3.32;100.00;98101.73;108791;1252;1015167;-76
2023/11/29 07:50:58;;;;;;;41.90;23.20;;;;;;;-3.24;100.00;98108.64;109545;1252;65022;-75
2023/11/29 07:53:25;;;;;;;39.90;21.40;;;;;;;-3.17;100.00;98105.70;109542;1253;58187;-77
2023/11/29 07:55:51;;;;;;;39.30;22.60;;;;;;;-3.12;100.00;98104.34;109485;1253;58183;-78
2023/11/29 07:58:18;;;;;;;36.10;22.20;;;;;;;-3.08;100.00;98105.62;109521;1253;63919;-80
2023/11/29 08:00:45;;;;;;;39.70;20.50;;;;;;;-3.11;100.00;98112.11;108756;1252;1002295;-77
2023/11/29 08:03:16;;;;;;;40.10;20.70;;;;;;;-3.07;100.00;98108.20;109472;1251;65095;-78
2023/11/29 08:05:43;;;;;;;39.30;22.10;;;;;;;-2.98;100.00;98107.27;108940;1253;58261;-79
2023/11/29 08:08:10;;;;;;;35.40;19.60;;;;;;;-2.93;100.00;98108.52;109529;1253;58134;-77
2023/11/29 08:10:37;;;;;;;31.20;17.70;;;;;;;-2.88;100.00;98111.36;108779;1252;1002504;-79
2023/11/29 08:13:04;;;;;;;33.20;17.10;;;;;;;-2.83;100.00;98112.25;109528;1252;60027;-79
2023/11/29 08:15:30;;;;;;;31.20;19.20;;;;;;;-2.80;100.00;98117.20;109510;1252;65089;-79
2023/11/29 08:17:57;;;;;;;28.70;18.50;;;;;;;-2.82;100.00;98116.73;109523;1252;58356;-79
2023/11/29 08:20:23;;;;;;;26.90;16.20;;;;;;;-2.80;100.00;98118.77;109514;1252;58267;-77
2023/11/29 08:22:50;;;;;;;29.30;17.70;;;;;;;-2.74;100.00;98117.39;109487;1251;66066;-78
2023/11/29 08:25:16;;;;;;;29.40;17.90;;;;;;;-2.72;100.00;98119.24;109425;1252;68618;-78
2023/11/29 08:27:43;;;;;;;32.60;18.50;;;;;;;-2.72;100.00;98115.94;109538;1253;73648;-79
2023/11/29 08:30:10;;;;;;;30.60;18.70;;;;;;;-2.70;100.00;98117.29;109483;1253;58162;-82
2023/11/29 08:32:37;;;;;;;30.80;18.10;;;;;;;-2.66;100.00;98119.25;109486;1253;58064;-79
2023/11/29 08:35:04;;;;;;;32.10;18.30;;;;;;;-2.69;100.00;98125.77;109493;1253;63936;-79
2023/11/29 08:37:30;;;;;;;27.80;17.00;;;;;;;-2.74;100.00;98130.61;109300;1253;59862;-79
2023/11/29 08:39:59;;;;;;;28.80;17.80;;;;;;;-2.74;100.00;98128.17;109510;1252;65019;-79
2023/11/29 08:42:26;;;;;;;29.50;17.80;;;;;;;-2.71;100.00;98121.84;109504;1252;58213;-82
2023/11/29 08:44:52;;;;;;;28.90;18.60;;;;;;;-2.68;100.00;98117.90;109566;1252;58030;-82
2023/11/29 08:47:19;;;;;;;32.90;18.90;;;;;;;-2.66;100.00;98116.47;109543;1253;66218;-80
2023/11/29 08:49:46;;;;;;;27.70;17.40;;;;;;;-2.61;100.00;98110.77;109516;1252;60058;-79
2023/11/29 08:52:13;;;;;;;29.00;18.10;;;;;;;-2.51;100.00;98105.80;109468;1252;64144;-78
2023/11/29 08:54:40;;;;;;;29.80;17.80;;;;;;;-2.45;100.00;98105.41;109469;1252;58439;-79
2023/11/29 08:57:07;;;;;;;26.30;16.70;;;;;;;-2.39;100.00;98104.57;109178;1252;58539;-80
2023/11/29 08:59:34;;;;;;;26.40;16.30;;;;;;;-2.33;100.00;98105.96;109508;1252;65221;-83
2023/11/29 09:02:01;;;;;;;30.90;18.10;;;;;;;-2.31;100.00;98114.60;109549;1253;59411;-82
2023/11/29 09:04:28;;;;;;;29.00;17.50;;;;;;;-2.35;100.00;98119.77;109502;1251;65141;-77
2023/11/29 09:06:54;;;;;;;29.20;17.60;;;;;;;-2.39;100.00;98120.92;109509;1252;58331;-79
2023/11/29 09:09:21;;;;;;;30.90;17.60;;;;;;;-2.36;100.00;98125.72;109496;1253;58216;-80
2023/11/29 09:11:47;;;;;;;30.30;18.80;;;;;;;-2.33;100.00;98131.52;109535;1252;66339;-78
2023/11/29 09:14:14;;;;;;;29.60;17.90;;;;;;;-2.28;100.00;98129.46;109529;1252;58896;-78
2023/11/29 09:16:41;;;;;;;29.60;17.50;;;;;;;-2.24;100.00;98126.76;109534;1252;63924;-79
2023/11/29 09:19:08;;;;;;;31.10;17.70;;;;;;;-2.16;100.00;98128.25;109528;1253;58440;-81
2023/11/29 09:21:35;;;;;;;26.60;16.60;;;;;;;-2.08;100.00;98126.27;109568;1251;58190;-80
2023/11/29 09:24:04;;;;;;;26.60;16.60;;;;;;;-1.99;100.00;98126.36;109554;1252;64838;-80
2023/11/29 09:26:31;;;;;;;29.90;18.60;;;;;;;-1.96;100.00;98122.61;109544;1252;59787;-80
2023/11/29 09:28:57;;;;;;;27.70;16.40;;;;;;;-1.94;100.00;98118.02;109471;1252;65170;-81
2023/11/29 09:31:26;;;;;;;29.30;17.70;;;;;;;-1.90;100.00;98118.58;109505;1253;58220;-83
2023/11/29 09:33:52;;;;;;;29.30;19.30;;;;;;;-1.88;100.00;98113.83;109532;1252;58284;-83
2023/11/29 09:36:20;;;;;;;31.50;19.00;;;;;;;-1.81;100.00;98110.47;109579;1253;66238;-81
2023/11/29 09:38:46;;;;;;;31.60;18.70;;;;;;;-1.74;100.00;98113.05;109539;1251;60975;-80
2023/11/29 09:41:14;;;;;;;29.70;20.10;;;;;;;-1.73;100.00;98112.64;109248;1251;62766;-76
2023/11/29 09:43:41;;;;;;;28.10;19.60;;;;;;;-1.69;100.00;98113.73;109511;1252;58085;-78
2023/11/29 09:46:08;;;;;;;32.00;20.30;;;;;;;-1.57;100.00;98110.41;109511;1252;58401;-81
2023/11/29 09:48:34;;;;;;;32.60;19.40;;;;;;;-1.50;100.00;98107.03;109256;1251;66172;-78
2023/11/29 09:51:01;;;;;;;31.10;19.60;;;;;;;-1.44;100.00;98107.56;109497;1252;68823;-78
2023/11/29 09:53:28;;;;;;;33.60;20.20;;;;;;;-1.41;100.00;98111.79;109498;1252;65006;-78
2023/11/29 09:55:55;;;;;;;34.00;21.20;;;;;;;-1.38;100.00;98112.73;109268;1253;58665;-79
2023/11/29 09:58:23;;;;;;;33.10;22.10;;;;;;;-1.31;100.00;98109.54;109501;1252;58083;-78
2023/11/29 10:00:50;;;;;;;31.60;20.00;;;;;;;-1.08;100.00;98103.90;109486;1253;66390;-79
2023/11/29 10:03:17;;;;;;;34.00;21.60;;;;;;;-0.88;100.00;98102.16;109506;1252;61054;-75
2023/11/29 10:05:45;;;;;;;30.70;21.10;;;;;;;-0.72;100.00;98095.32;109505;1252;73922;-75
2023/11/29 10:08:16;;;;;;;30.20;19.90;;;;;;;-0.68;100.00;98096.36;109521;1252;58209;-75
2023/11/29 10:10:44;;;;;;;28.90;18.70;;;;;;;-0.81;100.00;98098.25;109512;1252;58244;-76
2023/11/29 10:13:12;;;;;;;29.50;19.70;;;;;;;-0.95;100.00;98107.60;109524;1252;65199;-76
2023/11/29 10:15:44;;;;;;;30.00;21.10;;;;;;;-0.95;100.00;98110.76;109527;1253;60815;-78
2023/11/29 10:18:10;;;;;;;30.80;20.20;;;;;;;-0.77;100.00;98108.91;109519;1252;65275;-77
2023/11/29 10:20:37;;;;;;;29.20;19.20;;;;;;;-0.58;100.00;98109.30;109507;1252;58744;-76
2023/11/29 10:23:03;;;;;;;30.00;21.10;;;;;;;-0.62;100.00;98102.44;109534;1252;58204;-76
2023/11/29 10:25:32;;;;;;;29.70;18.80;;;;;;;-0.75;100.00;98100.48;109349;1252;65128;-76
2023/11/29 10:27:59;;;;;;;30.80;20.80;;;;;;;-0.76;100.00;98103.65;109501;1252;60026;-77
2023/11/29 10:30:25;;;;;;;27.10;18.50;;;;;;;-0.74;100.00;98109.33;109525;1253;63948;-75
2023/11/29 10:32:53;;;;;;;30.90;19.70;;;;;;;-0.70;100.00;98114.05;109164;1259;58212;-74
2023/11/29 10:35:23;;;;;;;26.80;18.00;;;;;;;-0.71;100.00;98118.63;109341;1253;59034;-76
2023/11/29 10:37:56;;;;;;;28.40;18.50;;;;;;;-0.74;100.00;98117.53;109588;1253;65369;-76
2023/11/29 10:40:24;;;;;;;29.50;18.40;;;;;;;-0.75;100.00;98113.04;109569;1252;61279;-76
2023/11/29 10:42:54;;;;;;;28.20;19.80;;;;;;;-0.76;100.00;98113.75;109534;1252;64255;-76
2023/11/29 10:45:21;;;;;;;27.60;18.50;;;;;;;-0.89;100.00;98111.61;109497;1252;58461;-76
2023/11/29 10:48:02;;;;;;;27.50;18.80;;;;;;;-0.99;100.00;98110.21;109539;1252;59082;-77
2023/11/29 10:50:31;;;;;;;28.70;19.00;;;;;;;-1.00;100.00;98114.25;109490;1253;66312;-79
2023/11/29 10:52:57;;;;;;;29.40;18.40;;;;;;;-0.95;100.00;98115.13;109457;1253;61123;-78
2023/11/29 10:55:24;;;;;;;27.40;17.80;;;;;;;-0.94;100.00;98116.64;109456;1253;65500;-79
2023/11/29 10:58:18;;;;;;;27.10;18.20;;;;;;;-0.87;100.00;98119.23;109542;1252;58433;-83